TimeEST,TemperatureF,Dew PointF,Humidity,Sea Level PressureIn,VisibilityMPH,Wind Direction,Wind SpeedMPH,Gust SpeedMPH,PrecipitationIn,Events,Conditions,WindDirDegrees,DateUTC
12:15 AM,27.9,26.2,94,30.41,10.0,Calm,Calm,-,N/A,,Clear,0,2012-11-30 05:15:00
12:35 AM,27.9,26.4,94,30.40,7.0,Calm,Calm,-,N/A,,Clear,0,2012-11-30 05:35:00
12:55 AM,27.7,26.2,94,30.40,10.0,Calm,Calm,-,N/A,,Clear,0,2012-11-30 05:55:00
1:15 AM,27.5,26.1,94,30.40,10.0,Calm,Calm,-,N/A,,Clear,0,2012-11-30 06:15:00
1:35 AM,27.7,26.2,94,30.40,10.0,Calm,Calm,-,N/A,,Clear,0,2012-11-30 06:35:00
1:55 AM,26.8,25.3,94,30.40,10.0,Calm,Calm,-,N/A,,Clear,0,2012-11-30 06:55:00
2:15 AM,26.8,25.2,94,30.39,10.0,Calm,Calm,-,N/A,,Clear,0,2012-11-30 07:15:00
2:35 AM,27.1,25.5,94,30.40,10.0,Calm,Calm,-,N/A,,Clear,0,2012-11-30 07:35:00
2:55 AM,27.1,25.5,94,30.40,10.0,Calm,Calm,-,N/A,,Clear,0,2012-11-30 07:55:00
3:15 AM,26.6,25.2,94,30.39,10.0,Calm,Calm,-,N/A,,Clear,0,2012-11-30 08:15:00
3:35 AM,26.4,25.0,94,30.39,7.0,Calm,Calm,-,N/A,,Clear,0,2012-11-30 08:35:00
3:55 AM,26.1,24.4,94,30.39,10.0,Calm,Calm,-,N/A,,Clear,0,2012-11-30 08:55:00
4:15 AM,26.1,24.1,92,30.39,10.0,Calm,Calm,-,N/A,,Clear,0,2012-11-30 09:15:00
4:35 AM,26.2,24.3,92,30.39,10.0,Calm,Calm,-,N/A,,Clear,0,2012-11-30 09:35:00
4:55 AM,26.6,24.6,92,30.39,10.0,Calm,Calm,-,N/A,,Clear,0,2012-11-30 09:55:00
5:15 AM,26.6,24.8,93,30.39,10.0,Calm,Calm,-,N/A,,Clear,0,2012-11-30 10:15:00
5:35 AM,26.6,25.0,94,30.39,10.0,Calm,Calm,-,N/A,,Clear,0,2012-11-30 10:35:00
5:55 AM,26.6,25.0,94,30.39,10.0,Calm,Calm,-,N/A,,Clear,0,2012-11-30 10:55:00
6:15 AM,26.4,25.0,94,30.39,10.0,Calm,Calm,-,N/A,,Clear,0,2012-11-30 11:15:00
6:35 AM,26.2,24.8,94,30.39,10.0,Calm,Calm,-,N/A,,Clear,0,2012-11-30 11:35:00
6:55 AM,26.1,24.4,94,30.40,10.0,Calm,Calm,-,N/A,,Clear,0,2012-11-30 11:55:00
7:15 AM,25.7,24.3,94,30.40,10.0,Calm,Calm,-,N/A,,Clear,0,2012-11-30 12:15:00
7:35 AM,26.8,25.3,94,30.41,10.0,Calm,Calm,-,N/A,,Clear,0,2012-11-30 12:35:00
7:55 AM,27.9,26.2,94,30.41,10.0,Calm,Calm,-,N/A,,Clear,0,2012-11-30 12:55:00
8:15 AM,29.3,27.5,93,30.41,10.0,Calm,Calm,-,N/A,,Clear,0,2012-11-30 13:15:00
8:35 AM,31.6,30.2,94,30.41,10.0,Calm,Calm,-,N/A,,Clear,0,2012-11-30 13:35:00
8:55 AM,35.6,32.5,89,30.41,10.0,Calm,Calm,-,N/A,,Clear,0,2012-11-30 13:55:00
9:15 AM,38.7,34.5,85,30.42,10.0,Calm,Calm,-,N/A,,Clear,0,2012-11-30 14:15:00
9:35 AM,41.9,35.4,78,30.42,10.0,Calm,Calm,-,N/A,,Clear,0,2012-11-30 14:35:00
9:55 AM,46.8,36.9,68,30.42,10.0,WSW,3.5,-,N/A,,Clear,240,2012-11-30 14:55:00
10:15 AM,50.7,35.8,57,30.42,10.0,SSW,4.6,-,N/A,,Clear,200,2012-11-30 15:15:00
10:35 AM,53.1,34.2,49,30.41,10.0,WSW,6.9,-,N/A,,Clear,240,2012-11-30 15:35:00
10:55 AM,54.3,34.2,47,30.41,10.0,South,5.8,-,N/A,,Clear,190,2012-11-30 15:55:00
11:15 AM,55.9,33.1,42,30.40,10.0,WSW,8.1,-,N/A,,Clear,240,2012-11-30 16:15:00
11:35 AM,57.2,33.1,40,30.39,10.0,SW,5.8,-,N/A,,Clear,220,2012-11-30 16:35:00
11:55 AM,58.1,33.1,39,30.38,10.0,SSW,6.9,-,N/A,,Clear,210,2012-11-30 16:55:00
12:15 PM,59.4,33.8,38,30.37,10.0,SSW,5.8,-,N/A,,Clear,210,2012-11-30 17:15:00
12:35 PM,59.9,33.8,38,30.36,10.0,SSW,3.5,-,N/A,,Clear,200,2012-11-30 17:35:00
12:55 PM,60.1,33.4,37,30.34,10.0,Calm,Calm,-,N/A,,Clear,0,2012-11-30 17:55:00
1:15 PM,60.6,34.0,37,30.34,10.0,West,6.9,-,N/A,,Clear,260,2012-11-30 18:15:00
1:35 PM,61.2,34.0,36,30.34,10.0,West,5.8,-,N/A,,Clear,280,2012-11-30 18:35:00
1:55 PM,61.2,33.8,36,30.33,10.0,WSW,6.9,-,N/A,,Clear,240,2012-11-30 18:55:00
2:15 PM,61.3,33.8,36,30.32,10.0,South,5.8,-,N/A,,Clear,180,2012-11-30 19:15:00
2:35 PM,61.7,33.8,35,30.32,10.0,South,3.5,-,N/A,,Clear,190,2012-11-30 19:35:00
2:55 PM,61.5,33.6,35,30.31,10.0,SW,6.9,-,N/A,,Clear,220,2012-11-30 19:55:00
3:15 PM,61.3,33.8,36,30.31,10.0,SSE,4.6,-,N/A,,Clear,160,2012-11-30 20:15:00
3:35 PM,61.2,33.8,36,30.31,10.0,South,6.9,-,N/A,,Clear,180,2012-11-30 20:35:00
3:55 PM,60.8,33.6,36,30.31,10.0,SSW,5.8,-,N/A,,Clear,200,2012-11-30 20:55:00
4:15 PM,60.1,34.0,38,30.31,10.0,South,3.5,-,N/A,,Clear,180,2012-11-30 21:15:00
4:35 PM,59.0,34.0,39,30.31,10.0,Calm,Calm,-,N/A,,Clear,0,2012-11-30 21:35:00
4:55 PM,57.4,34.0,41,30.31,10.0,Calm,Calm,-,N/A,,Clear,0,2012-11-30 21:55:00
5:15 PM,52.5,36.0,53,30.31,10.0,Calm,Calm,-,N/A,,Clear,0,2012-11-30 22:15:00
5:35 PM,47.5,38.1,70,30.31,10.0,Calm,Calm,-,N/A,,Clear,0,2012-11-30 22:35:00
5:55 PM,46.6,37.6,71,30.31,10.0,Calm,Calm,-,N/A,,Clear,0,2012-11-30 22:55:00
6:15 PM,43.9,37.4,78,30.32,10.0,Calm,Calm,-,N/A,,Clear,0,2012-11-30 23:15:00
6:35 PM,43.5,37.2,78,30.32,10.0,Calm,Calm,-,N/A,,Clear,0,2012-11-30 23:35:00
6:55 PM,43.9,35.6,73,30.32,10.0,Calm,Calm,-,N/A,,Clear,0,2012-11-30 23:55:00
7:15 PM,41.9,37.2,83,30.32,10.0,Calm,Calm,-,N/A,,Clear,0,2012-12-01 00:15:00
7:35 PM,41.4,37.4,86,30.33,10.0,Calm,Calm,-,N/A,,Clear,0,2012-12-01 00:35:00
7:55 PM,41.4,36.0,81,30.33,10.0,Calm,Calm,-,N/A,,Clear,0,2012-12-01 00:55:00
8:15 PM,40.6,35.6,82,30.33,10.0,Calm,Calm,-,N/A,,Clear,0,2012-12-01 01:15:00
8:35 PM,39.6,36.0,87,30.33,10.0,Calm,Calm,-,N/A,,Clear,0,2012-12-01 01:35:00
8:55 PM,39.4,34.7,83,30.34,10.0,Calm,Calm,-,N/A,,Clear,0,2012-12-01 01:55:00
9:15 PM,37.8,35.1,90,30.34,10.0,Calm,Calm,-,N/A,,Clear,0,2012-12-01 02:15:00
9:35 PM,36.9,34.5,91,30.35,7.0,Calm,Calm,-,N/A,,Clear,0,2012-12-01 02:35:00
9:55 PM,35.8,33.8,92,30.34,4.0,Calm,Calm,-,N/A,,Clear,0,2012-12-01 02:55:00
10:15 PM,35.4,33.6,93,30.34,10.0,Calm,Calm,-,N/A,,Clear,0,2012-12-01 03:15:00
10:35 PM,34.5,32.9,94,30.34,5.0,Calm,Calm,-,N/A,,Clear,0,2012-12-01 03:35:00
10:55 PM,33.8,32.2,94,30.35,7.0,Calm,Calm,-,N/A,,Clear,0,2012-12-01 03:55:00
11:15 PM,33.4,32.0,94,30.34,2.0,Calm,Calm,-,N/A,,Clear,0,2012-12-01 04:15:00
11:35 PM,33.1,32.0,96,30.34,5.0,Calm,Calm,-,N/A,,Clear,0,2012-12-01 04:35:00